createdAt,value
2022-10-18T00:04:57.852Z,1016.35
2022-10-18T00:10:10.078Z,1016.338
2022-10-18T00:15:22.183Z,1016.346
2022-10-18T00:20:34.658Z,1016.402
2022-10-18T00:25:46.926Z,1016.479
2022-10-18T00:30:59.234Z,1016.495
2022-10-18T00:36:11.490Z,1016.525
2022-10-18T00:41:23.856Z,1016.568
2022-10-18T00:46:36.329Z,1016.499
2022-10-18T00:51:48.633Z,1016.524
2022-10-18T00:57:00.977Z,1016.621
2022-10-18T01:02:13.338Z,1016.53
2022-10-18T01:07:25.632Z,1016.675
2022-10-18T01:12:37.855Z,1016.683
2022-10-18T01:17:50.057Z,1016.762
2022-10-18T01:23:02.440Z,1016.677
2022-10-18T01:28:14.805Z,1016.575
2022-10-18T01:33:27.125Z,1016.51
2022-10-18T01:38:39.469Z,1016.543
2022-10-18T01:43:52.897Z,1016.551
2022-10-18T01:49:05.005Z,1016.663
2022-10-18T01:54:17.552Z,1016.596
2022-10-18T01:59:29.765Z,1016.571
2022-10-18T02:04:41.996Z,1016.562
2022-10-18T02:09:54.216Z,1016.554
2022-10-18T02:15:06.458Z,1016.557
2022-10-18T02:20:18.773Z,1016.475
2022-10-18T02:25:31.287Z,1016.595
2022-10-18T02:30:43.457Z,1016.573
2022-10-18T02:35:55.752Z,1016.684
2022-10-18T02:41:08.272Z,1016.801
2022-10-18T02:46:20.628Z,1016.811
2022-10-18T02:51:33.206Z,1016.796
2022-10-18T02:56:45.565Z,1016.709
2022-10-18T03:01:57.747Z,1016.778
2022-10-18T03:07:09.839Z,1016.845
2022-10-18T03:12:22.137Z,1017.001
2022-10-18T03:17:34.630Z,1017.144
2022-10-18T03:22:46.759Z,1017.042
2022-10-18T03:27:59.091Z,1016.938
2022-10-18T03:33:11.478Z,1016.963
2022-10-18T03:38:23.908Z,1016.962
2022-10-18T03:43:36.168Z,1016.942
2022-10-18T03:48:48.380Z,1016.908
2022-10-18T03:54:00.546Z,1016.95
2022-10-18T03:59:12.848Z,1016.838
2022-10-18T04:04:25.146Z,1016.809
2022-10-18T04:09:37.349Z,1016.925
2022-10-18T04:14:49.588Z,1016.967
2022-10-18T04:20:01.842Z,1016.928
2022-10-18T04:25:14.311Z,1016.855
2022-10-18T04:30:26.648Z,1016.933
2022-10-18T04:35:38.949Z,1016.931
2022-10-18T04:40:51.274Z,1016.907
2022-10-18T04:46:03.824Z,1016.88
2022-10-18T04:51:16.643Z,1016.841
2022-10-18T04:56:28.934Z,1016.85
2022-10-18T05:01:41.386Z,1016.886
2022-10-18T05:06:53.635Z,1016.787
2022-10-18T05:12:06.007Z,1016.909
2022-10-18T05:17:18.387Z,1016.726
2022-10-18T05:22:31.089Z,1016.69
2022-10-18T05:27:43.013Z,1016.79
2022-10-18T05:32:55.243Z,1016.777
2022-10-18T05:38:07.861Z,1016.757
2022-10-18T05:43:20.382Z,1016.782
2022-10-18T05:48:32.549Z,1016.832
2022-10-18T05:53:45.030Z,1016.811
2022-10-18T05:58:57.344Z,1016.787
2022-10-18T06:04:09.928Z,1016.815
2022-10-18T06:09:22.430Z,1016.776
2022-10-18T06:14:34.826Z,1016.62
2022-10-18T06:19:47.398Z,1016.715
2022-10-18T06:24:59.645Z,1016.723
2022-10-18T06:30:11.862Z,1016.619
2022-10-18T06:35:24.169Z,1016.391
2022-10-18T06:40:36.479Z,1016.706
2022-10-18T06:45:48.889Z,1016.75
2022-10-18T06:51:01.323Z,1016.858
2022-10-18T06:56:13.641Z,1016.845
2022-10-18T07:01:26.186Z,1016.894
2022-10-18T07:06:38.367Z,1016.86
2022-10-18T07:11:50.935Z,1017.091
2022-10-18T07:17:03.183Z,1017.171
2022-10-18T07:22:15.589Z,1017.298
2022-10-18T07:27:27.971Z,1017.406
2022-10-18T07:32:40.352Z,1017.423
2022-10-18T07:37:52.555Z,1017.478
2022-10-18T07:43:05.033Z,1017.487
2022-10-18T07:48:17.068Z,1017.457
2022-10-18T07:53:29.340Z,1017.462
2022-10-18T07:58:41.729Z,1017.363
2022-10-18T08:03:54.028Z,1017.421
2022-10-18T08:09:06.546Z,1017.356
2022-10-18T08:14:18.911Z,1017.332
2022-10-18T08:19:31.077Z,1017.291
2022-10-18T08:24:43.581Z,1017.325
2022-10-18T08:29:55.945Z,1017.363
2022-10-18T08:35:08.594Z,1017.374
2022-10-18T08:40:20.428Z,1017.297
2022-10-18T08:45:48.171Z,1017.264
2022-10-18T08:50:45.243Z,1017.319
2022-10-18T08:55:57.800Z,1017.336
2022-10-18T09:01:09.825Z,1017.357
2022-10-18T09:06:23.434Z,1017.387
2022-10-18T09:11:34.373Z,1017.434
2022-10-18T09:16:46.872Z,1017.437
2022-10-18T09:21:59.125Z,1017.469
2022-10-18T09:27:11.480Z,1017.422
2022-10-18T09:32:24.067Z,1017.307
2022-10-18T09:37:36.231Z,1017.32
2022-10-18T09:42:48.617Z,1017.268
2022-10-18T09:48:00.835Z,1017.326
2022-10-18T09:53:13.142Z,1017.367
2022-10-18T09:58:25.396Z,1017.351
2022-10-18T10:03:37.694Z,1017.411
2022-10-18T10:08:50.016Z,1017.438
2022-10-18T10:14:02.186Z,1017.382
2022-10-18T10:19:14.463Z,1017.316
2022-10-18T10:24:28.694Z,1017.228
2022-10-18T10:29:44.317Z,1017.297
2022-10-18T10:34:51.463Z,1017.279
2022-10-18T10:40:20.393Z,1017.199
2022-10-18T10:45:16.166Z,1017.191
2022-10-18T10:50:28.518Z,1016.972
2022-10-18T10:55:40.760Z,1016.864
2022-10-18T11:00:53.080Z,1016.959
2022-10-18T11:06:05.816Z,1017.01
2022-10-18T11:11:19.393Z,1016.958
2022-10-18T11:16:30.631Z,1016.945
2022-10-18T11:21:42.943Z,1016.835
2022-10-18T11:26:55.238Z,1016.909
2022-10-18T11:32:07.766Z,1016.953
2022-10-18T11:37:28.431Z,1016.922
2022-10-18T11:42:34.773Z,1016.852
2022-10-18T11:47:45.210Z,1016.802
2022-10-18T11:52:57.508Z,1016.723
2022-10-18T11:58:09.846Z,1016.61
2022-10-18T12:03:22.310Z,1016.737
2022-10-18T12:08:35.375Z,1016.741
2022-10-18T12:13:47.696Z,1016.703
2022-10-18T12:19:00.075Z,1016.74
2022-10-18T12:24:12.394Z,1016.682
2022-10-18T12:29:24.984Z,1016.608
2022-10-18T12:34:37.140Z,1016.532
2022-10-18T12:40:12.342Z,1016.589
2022-10-18T12:45:02.051Z,1016.568
2022-10-18T12:50:14.524Z,1016.541
2022-10-18T12:55:26.575Z,1016.435
2022-10-18T13:00:39.005Z,1016.417
2022-10-18T13:05:54.218Z,1016.484
2022-10-18T13:11:03.729Z,1016.578
2022-10-18T13:16:16.295Z,1016.448
2022-10-18T13:21:28.753Z,1016.528
2022-10-18T13:26:41.047Z,1016.507
2022-10-18T13:31:53.360Z,1016.497
2022-10-18T13:37:05.539Z,1016.473
2022-10-18T13:42:18.116Z,1016.495
2022-10-18T13:47:30.567Z,1016.444
2022-10-18T13:52:43.094Z,1016.491
2022-10-18T13:57:55.254Z,1016.468
2022-10-18T14:03:12.773Z,1016.628
2022-10-18T14:08:20.167Z,1016.693
2022-10-18T14:13:32.584Z,1016.656
2022-10-18T14:18:44.696Z,1016.79
2022-10-18T14:23:57.359Z,1016.841
2022-10-18T14:29:09.699Z,1016.864
2022-10-18T14:34:22.180Z,1016.864
2022-10-18T14:39:34.336Z,1016.857
2022-10-18T14:44:47.034Z,1016.908
2022-10-18T14:49:59.446Z,1016.878
2022-10-18T14:55:12.042Z,1016.894
2022-10-18T15:05:36.943Z,1016.89
2022-10-18T15:10:49.210Z,1016.979
2022-10-18T15:16:01.280Z,1016.856
2022-10-18T15:21:13.300Z,1016.88
2022-10-18T15:26:25.428Z,1016.858
2022-10-18T15:31:37.638Z,1016.879
2022-10-18T15:36:49.755Z,1016.862
2022-10-18T15:42:02.530Z,1016.892
2022-10-18T15:47:14.999Z,1016.861
2022-10-18T15:52:27.122Z,1016.862
2022-10-18T15:57:39.388Z,1016.887
2022-10-18T16:02:51.765Z,1016.842
2022-10-18T16:08:03.924Z,1016.82
2022-10-18T16:13:16.244Z,1016.851
2022-10-18T16:18:28.431Z,1016.895
2022-10-18T16:23:40.570Z,1016.901
2022-10-18T16:28:53.016Z,1016.982
2022-10-18T16:34:05.188Z,1017.064
2022-10-18T16:39:17.539Z,1017.039
2022-10-18T16:44:29.877Z,1017.051
2022-10-18T16:49:42.083Z,1017.107
2022-10-18T16:54:54.463Z,1017.164
2022-10-18T17:00:07.169Z,1017.166
2022-10-18T17:05:19.438Z,1017.208
2022-10-18T17:10:31.809Z,1017.251
2022-10-18T17:15:44.641Z,1017.24
2022-10-18T17:20:57.139Z,1017.271
2022-10-18T17:26:27.602Z,1017.149
2022-10-18T17:31:22.006Z,1017.2
2022-10-18T17:36:34.534Z,1017.274
2022-10-18T17:41:46.841Z,1017.304
2022-10-18T17:46:59.057Z,1017.287
2022-10-18T17:52:11.357Z,1017.324
2022-10-18T17:57:23.913Z,1017.35
2022-10-18T18:02:37.231Z,1017.321
2022-10-18T18:07:48.486Z,1017.362
2022-10-18T18:13:00.881Z,1017.411
2022-10-18T18:18:13.133Z,1017.461
2022-10-18T18:23:25.433Z,1017.444
2022-10-18T18:28:37.956Z,1017.509
2022-10-18T18:33:50.291Z,1017.562
2022-10-18T18:39:02.637Z,1017.566
2022-10-18T18:44:15.085Z,1017.561
2022-10-18T18:49:27.573Z,1017.625
2022-10-18T18:54:39.871Z,1017.557
2022-10-18T18:59:52.416Z,1017.555
2022-10-18T19:05:04.931Z,1017.545
2022-10-18T19:10:17.211Z,1017.587
2022-10-18T19:15:29.745Z,1017.56
2022-10-18T19:20:42.231Z,1017.611
2022-10-18T19:25:54.474Z,1017.637
2022-10-18T19:31:07.012Z,1017.62
2022-10-18T19:36:19.293Z,1017.656
2022-10-18T19:41:31.870Z,1017.632
2022-10-18T19:46:44.436Z,1017.661
2022-10-18T19:51:56.905Z,1017.775
2022-10-18T19:57:09.256Z,1017.915
2022-10-18T20:02:21.612Z,1017.991
2022-10-18T20:07:33.976Z,1017.937
2022-10-18T20:12:46.450Z,1017.938
2022-10-18T20:17:58.893Z,1017.982
2022-10-18T20:23:11.423Z,1018.086
2022-10-18T20:28:23.946Z,1018.128
2022-10-18T20:33:36.298Z,1018.066
2022-10-18T20:38:48.741Z,1018.077
2022-10-18T20:44:01.130Z,1018.126
2022-10-18T20:49:13.449Z,1018.037
2022-10-18T20:54:25.693Z,1018.129
2022-10-18T20:59:38.177Z,1018.104
2022-10-18T21:04:50.530Z,1018.118
2022-10-18T21:10:02.726Z,1018.053
2022-10-18T21:15:15.467Z,1018.035
2022-10-18T21:20:27.686Z,1018.032
2022-10-18T21:25:39.904Z,1018.04
2022-10-18T21:30:52.106Z,1018.069
2022-10-18T21:36:04.447Z,1017.978
2022-10-18T21:41:16.800Z,1018.079
2022-10-18T21:46:29.218Z,1017.932
2022-10-18T21:51:41.935Z,1017.895
2022-10-18T21:56:54.155Z,1017.931
2022-10-18T22:02:06.347Z,1018.027
2022-10-18T22:07:18.674Z,1018.035
2022-10-18T22:12:31.047Z,1018.068
2022-10-18T22:17:43.454Z,1017.987
2022-10-18T22:22:55.982Z,1017.945
2022-10-18T22:28:08.229Z,1017.844
2022-10-18T22:33:21.035Z,1017.799
2022-10-18T22:38:33.594Z,1017.738
2022-10-18T22:43:46.015Z,1017.696
2022-10-18T22:48:58.076Z,1017.734
2022-10-18T22:54:10.317Z,1017.671
2022-10-18T22:59:22.687Z,1017.618
2022-10-18T23:04:34.870Z,1017.657
2022-10-18T23:09:47.328Z,1017.583
2022-10-18T23:14:59.589Z,1017.582
2022-10-18T23:20:11.870Z,1017.614
2022-10-18T23:25:24.396Z,1017.624
2022-10-18T23:30:36.925Z,1017.532
2022-10-18T23:35:49.334Z,1017.602
2022-10-18T23:41:01.691Z,1017.539
2022-10-18T23:46:14.013Z,1017.609
2022-10-18T23:51:26.306Z,1017.626
2022-10-18T23:56:38.705Z,1017.624
